Time;durP1;ratioP1;P1;durP2;ratioP2;P2;SDS_P1;SDS_P2;PMS_P1;PMS_P2;Temp;Humidity;BMP_temperature;BMP_pressure;BME280_temperature;BME280_humidity;BME280_pressure;Samples;Min_cycle;Max_cycle;Signal;HPM_P1;HPM_P2
2022/08/21 00:00:28;;;;;;;11.10;5.07;;;;;;;19.15;74.54;101592.91;5092285;28;20042;-54
2022/08/21 00:03:02;;;;;;;9.70;4.47;;;;;;;19.13;74.73;101600.66;5093384;28;20101;-57
2022/08/21 00:05:30;;;;;;;10.45;4.72;;;;;;;19.14;74.70;101594.00;5093078;28;20057;-57
2022/08/21 00:07:58;;;;;;;9.95;4.75;;;;;;;19.12;74.64;101599.84;5075004;28;20071;-56
2022/08/21 00:10:26;;;;;;;10.75;5.03;;;;;;;19.10;75.03;101591.06;5090735;28;20388;-55
2022/08/21 00:12:54;;;;;;;11.65;4.80;;;;;;;19.10;74.89;101595.75;5092492;28;20498;-56
2022/08/21 00:15:26;;;;;;;10.80;5.00;;;;;;;19.07;75.41;101590.84;5075246;28;20383;-54
2022/08/21 00:17:54;;;;;;;8.63;4.90;;;;;;;19.06;75.23;101589.22;5092289;28;20457;-53
2022/08/21 00:20:23;;;;;;;11.18;5.07;;;;;;;18.99;75.65;101586.84;5093008;28;20065;-57
2022/08/21 00:22:51;;;;;;;8.77;4.97;;;;;;;18.97;75.83;101589.09;5074655;28;20036;-56
2022/08/21 00:25:20;;;;;;;10.88;5.13;;;;;;;18.98;75.73;101585.22;5092841;28;20047;-53
2022/08/21 00:27:53;;;;;;;12.63;5.32;;;;;;;18.96;75.95;101594.94;5074210;28;20040;-56
2022/08/21 00:30:23;;;;;;;13.23;5.38;;;;;;;18.96;75.99;101583.91;5092618;28;20036;-56
2022/08/21 00:32:52;;;;;;;9.20;4.57;;;;;;;18.89;76.31;101579.59;5081854;28;20443;-50
2022/08/21 00:35:26;;;;;;;9.30;4.40;;;;;;;18.88;76.80;101583.47;5074836;28;20096;-50
2022/08/21 00:37:54;;;;;;;8.18;4.43;;;;;;;18.96;76.49;101592.19;5091678;28;20044;-52
2022/08/21 00:40:27;;;;;;;12.43;4.90;;;;;;;19.01;76.36;101576.31;5074767;28;20479;-55
2022/08/21 00:42:54;;;;;;;12.20;4.93;;;;;;;19.05;76.04;101577.34;5092597;28;20107;-57
2022/08/21 00:45:23;;;;;;;12.27;5.18;;;;;;;19.07;75.87;101568.72;5058800;28;20043;-54
2022/08/21 00:47:51;;;;;;;12.15;4.88;;;;;;;19.06;75.91;101565.16;5091781;28;20036;-58
2022/08/21 00:50:20;;;;;;;12.25;4.97;;;;;;;19.06;75.96;101573.44;5092298;28;20047;-55
2022/08/21 00:52:50;;;;;;;9.25;4.45;;;;;;;19.08;76.02;101570.38;5092802;28;20049;-54
2022/08/21 00:55:19;;;;;;;11.82;4.93;;;;;;;19.06;75.79;101573.44;5074268;28;20055;-55
2022/08/21 00:57:52;;;;;;;7.97;4.13;;;;;;;19.06;75.80;101567.94;5091673;28;20498;-54
2022/08/21 01:00:28;;;;;;;8.23;4.47;;;;;;;19.08;75.69;101576.72;5074372;28;20494;-53
2022/08/21 01:02:57;;;;;;;10.15;4.43;;;;;;;19.07;75.70;101575.09;5074868;28;20044;-53
2022/08/21 01:05:26;;;;;;;9.93;4.30;;;;;;;19.06;75.60;101575.41;5095796;28;20028;-56
2022/08/21 01:07:58;;;;;;;11.07;4.90;;;;;;;19.08;75.69;101575.91;5077610;28;20417;-57
2022/08/21 01:10:26;;;;;;;9.25;4.57;;;;;;;19.05;75.43;101571.81;5095336;28;20522;-56
2022/08/21 01:12:55;;;;;;;12.05;4.85;;;;;;;19.05;75.46;101576.50;5095368;28;20491;-56
2022/08/21 01:15:26;;;;;;;11.60;5.07;;;;;;;19.02;75.60;101574.38;5078560;28;20509;-59
2022/08/21 01:17:54;;;;;;;8.98;3.95;;;;;;;19.00;75.56;101580.22;5077982;28;20036;-58
2022/08/21 01:20:22;;;;;;;9.93;4.70;;;;;;;19.00;75.35;101582.97;5095002;28;20047;-56
2022/08/21 01:23:01;;;;;;;10.60;4.75;;;;;;;18.99;75.19;101580.50;5096154;28;20514;-54
2022/08/21 01:25:28;;;;;;;10.82;4.50;;;;;;;18.97;75.24;101577.22;5095899;28;20036;-51
2022/08/21 01:27:58;;;;;;;8.23;4.28;;;;;;;18.97;75.12;101578.03;5096082;28;20040;-56
2022/08/21 01:30:27;;;;;;;8.60;4.50;;;;;;;18.98;75.23;101568.66;5075406;28;20032;-53
2022/08/21 01:32:55;;;;;;;11.60;4.55;;;;;;;18.98;75.10;101568.66;5095682;28;20040;-57
2022/08/21 01:35:23;;;;;;;8.57;4.63;;;;;;;18.96;75.06;101572.84;5095556;28;20089;-53
2022/08/21 01:37:51;;;;;;;8.88;4.30;;;;;;;18.92;75.06;101572.63;5095630;28;20089;-56
2022/08/21 01:40:19;;;;;;;12.02;4.80;;;;;;;18.89;75.03;101578.78;5077187;28;20092;-57
2022/08/21 01:42:48;;;;;;;8.68;4.65;;;;;;;18.87;75.04;101581.00;5093686;28;20047;-55
2022/08/21 01:45:16;;;;;;;10.13;4.75;;;;;;;18.83;75.12;101574.47;5077593;28;20048;-55
2022/08/21 01:47:44;;;;;;;10.48;4.38;;;;;;;18.80;75.03;101575.06;5094780;28;20383;-56
2022/08/21 01:50:15;;;;;;;8.77;4.15;;;;;;;18.74;75.15;101572.38;5094310;28;20444;-56
2022/08/21 01:52:43;;;;;;;8.38;4.03;;;;;;;18.69;75.24;101572.47;5083521;28;20044;-56
2022/08/21 01:55:12;;;;;;;7.93;4.15;;;;;;;18.68;75.34;101570.81;5095219;28;20093;-57
2022/08/21 01:57:40;;;;;;;9.98;4.30;;;;;;;18.69;75.42;101564.19;5077093;28;20376;-56
2022/08/21 02:00:11;;;;;;;9.60;4.03;;;;;;;18.70;75.29;101563.06;5087679;28;20040;-56
2022/08/21 02:02:40;;;;;;;9.77;4.70;;;;;;;18.66;75.04;101570.31;5094215;28;20044;-53
2022/08/21 02:05:11;;;;;;;8.93;4.13;;;;;;;18.62;75.51;101558.25;5095207;28;20067;-57
2022/08/21 02:07:41;;;;;;;10.80;4.45;;;;;;;18.55;75.73;101563.38;5077065;28;20048;-55
2022/08/21 02:10:12;;;;;;;7.18;3.85;;;;;;;18.53;76.00;101560.06;5094121;28;20051;-54
2022/08/21 02:12:39;;;;;;;11.75;4.43;;;;;;;18.53;76.12;101560.91;5093999;28;20036;-56
2022/08/21 02:15:09;;;;;;;11.80;4.85;;;;;;;18.50;75.90;101552.41;5094672;28;20043;-55
2022/08/21 02:17:51;;;;;;;9.40;4.50;;;;;;;18.45;75.81;101547.00;5076952;28;20052;-55
2022/08/21 02:20:28;;;;;;;11.20;4.13;;;;;;;18.37;76.33;101544.91;5094121;28;20414;-55
2022/08/21 02:22:56;;;;;;;8.75;4.22;;;;;;;18.22;77.10;101549.56;5094004;28;20036;-55
2022/08/21 02:25:25;;;;;;;7.47;3.88;;;;;;;18.17;77.39;101546.91;5077139;28;20044;-56
2022/08/21 02:27:53;;;;;;;9.98;4.38;;;;;;;18.17;77.47;101543.34;5060309;28;20040;-52
2022/08/21 02:30:27;;;;;;;15.25;5.20;;;;;;;18.16;77.46;101539.75;5094489;28;20039;-57
2022/08/21 02:32:56;;;;;;;10.18;4.18;;;;;;;18.12;77.57;101547.00;5093842;28;20081;-57
2022/08/21 02:35:25;;;;;;;11.35;4.80;;;;;;;18.06;78.12;101546.28;5094156;28;20402;-55
2022/08/21 02:38:01;;;;;;;12.15;4.68;;;;;;;17.97;78.65;101548.06;5094329;28;20059;-53
2022/08/21 02:40:31;;;;;;;9.13;4.18;;;;;;;17.95;79.18;101543.97;5094179;28;20043;-58
2022/08/21 02:43:00;;;;;;;9.13;4.47;;;;;;;17.97;79.08;101544.50;5075860;28;20048;-58
2022/08/21 02:45:29;;;;;;;9.82;4.22;;;;;;;17.95;79.00;101538.47;5094585;28;20437;-58
2022/08/21 02:47:59;;;;;;;8.02;4.18;;;;;;;17.90;79.48;101535.78;5094828;28;20479;-58
2022/08/21 02:50:36;;;;;;;7.80;4.07;;;;;;;17.91;79.47;101538.22;5093701;28;20044;-54
2022/08/21 02:53:06;;;;;;;7.85;4.13;;;;;;;17.96;79.36;101531.81;5094642;28;20044;-54
2022/08/21 02:55:36;;;;;;;8.55;4.28;;;;;;;17.92;79.41;101536.28;5092908;28;20039;-56
2022/08/21 02:58:06;;;;;;;11.27;4.80;;;;;;;17.87;79.54;101534.41;5076044;28;20040;-55
2022/08/21 03:00:36;;;;;;;9.57;4.97;;;;;;;17.79;80.22;101524.88;5075311;28;20051;-52
2022/08/21 03:03:04;;;;;;;8.23;4.55;;;;;;;17.77;80.40;101527.09;5093990;28;20047;-56
2022/08/21 03:05:34;;;;;;;10.43;4.25;;;;;;;17.75;80.46;101528.53;5079384;28;20044;-56
2022/08/21 03:08:03;;;;;;;8.88;4.20;;;;;;;17.76;80.49;101527.41;5093678;28;20036;-53
2022/08/21 03:10:31;;;;;;;11.32;4.53;;;;;;;17.77;80.54;101518.84;5092922;28;20069;-54
2022/08/21 03:12:59;;;;;;;9.95;4.47;;;;;;;17.75;80.42;101528.53;5093128;28;20056;-56
2022/08/21 03:15:28;;;;;;;10.95;4.53;;;;;;;17.74;80.59;101522.19;5093243;28;20051;-53
2022/08/21 03:17:56;;;;;;;10.73;4.43;;;;;;;17.73;80.47;101526.09;5091848;28;20084;-53
2022/08/21 03:20:26;;;;;;;8.70;4.55;;;;;;;17.71;80.44;101522.00;5093719;28;20047;-55
2022/08/21 03:22:55;;;;;;;8.57;3.97;;;;;;;17.70;80.87;101523.91;5092501;28;20048;-53
2022/08/21 03:25:25;;;;;;;7.47;4.10;;;;;;;17.73;80.98;101517.81;5075302;28;20040;-54
2022/08/21 03:28:12;;;;;;;9.10;4.30;;;;;;;17.77;80.58;101518.84;5093496;28;20074;-55
2022/08/21 03:30:42;;;;;;;9.23;4.22;;;;;;;17.82;80.94;101531.75;5093254;28;20040;-60
2022/08/21 03:33:10;;;;;;;7.13;4.22;;;;;;;17.87;80.19;101527.00;5094532;28;20086;-58
2022/08/21 03:35:43;;;;;;;10.32;4.15;;;;;;;17.93;80.46;101522.22;5093564;28;20481;-56
2022/08/21 03:38:15;;;;;;;12.00;4.32;;;;;;;17.97;79.71;101523.25;5076938;28;20051;-56
2022/08/21 03:40:43;;;;;;;9.63;4.55;;;;;;;17.98;79.19;101529.59;5075431;28;20048;-53
2022/08/21 03:43:11;;;;;;;9.73;4.75;;;;;;;17.94;79.25;101523.84;5076395;28;20193;-56
2022/08/21 03:45:39;;;;;;;15.02;4.63;;;;;;;17.93;79.04;101524.16;5093786;28;20047;-57
2022/08/21 03:48:08;;;;;;;9.82;4.72;;;;;;;17.91;79.27;101526.38;5076214;28;20028;-57
2022/08/21 03:50:40;;;;;;;9.60;4.75;;;;;;;17.91;79.15;101521.69;5094427;28;20495;-56
2022/08/21 03:53:10;;;;;;;10.02;4.50;;;;;;;17.89;79.14;101518.41;5092203;28;20456;-57
2022/08/21 03:55:45;;;;;;;;;;;;;;;17.90;79.11;101519.25;5063633;28;20067;-56
2022/08/21 03:58:15;;;;;;;8.63;4.00;;;;;;;17.80;79.27;101515.53;5093356;28;19920;-52
2022/08/21 04:00:51;;;;;;;11.88;5.03;;;;;;;17.79;79.28;101518.53;5093301;28;20040;-53
2022/08/21 04:03:19;;;;;;;11.85;5.10;;;;;;;17.73;79.54;101519.75;5091051;28;20056;-57
2022/08/21 04:05:47;;;;;;;8.70;4.57;;;;;;;17.68;79.97;101512.38;5091511;28;20040;-56
2022/08/21 04:08:19;;;;;;;8.65;4.35;;;;;;;17.67;79.96;101521.75;5074389;28;20097;-55
2022/08/21 04:10:50;;;;;;;10.25;5.05;;;;;;;17.66;80.12;101518.19;5090987;28;20406;-56
2022/08/21 04:13:18;;;;;;;10.45;5.03;;;;;;;17.66;80.14;101515.44;5090762;28;20069;-55
2022/08/21 04:15:46;;;;;;;8.07;4.55;;;;;;;17.67;79.68;101510.72;5091129;28;20039;-56
2022/08/21 04:18:14;;;;;;;10.05;4.38;;;;;;;17.67;80.14;101511.53;5073980;28;20044;-58
2022/08/21 04:20:44;;;;;;;7.97;4.70;;;;;;;17.71;79.88;101508.22;5090568;28;20517;-58
2022/08/21 04:23:18;;;;;;;8.45;4.00;;;;;;;17.75;79.81;101512.81;5040557;28;20036;-56
2022/08/21 04:25:53;;;;;;;16.17;4.60;;;;;;;17.76;79.59;101513.63;5067754;28;20071;-52
2022/08/21 04:28:22;;;;;;;7.40;4.10;;;;;;;17.75;79.41;101511.97;5078086;28;20043;-48
2022/08/21 04:30:55;;;;;;;8.25;4.00;;;;;;;17.77;79.62;101520.78;5091713;28;20048;-49
2022/08/21 04:33:24;;;;;;;8.07;3.92;;;;;;;17.79;79.61;101524.88;5073630;28;20048;-50
2022/08/21 04:35:51;;;;;;;9.57;4.13;;;;;;;17.77;79.71;101524.34;5038355;28;20063;-49
2022/08/21 04:38:20;;;;;;;9.18;4.53;;;;;;;17.76;79.18;101519.16;5077083;28;20517;-49
2022/08/21 04:40:49;;;;;;;9.35;4.68;;;;;;;17.70;79.07;101525.84;5096515;28;20040;-49
2022/08/21 04:43:18;;;;;;;8.63;4.07;;;;;;;17.72;79.98;101534.63;5078603;28;20075;-55
2022/08/21 04:45:47;;;;;;;8.43;4.47;;;;;;;17.66;79.15;101536.66;5095153;28;20036;-48
2022/08/21 04:48:18;;;;;;;7.22;3.97;;;;;;;17.68;80.18;101539.94;5078037;28;20085;-51
2022/08/21 04:51:12;;;;;;;10.23;4.15;;;;;;;17.68;80.38;101539.94;5078342;28;20036;-51
2022/08/21 04:54:02;;;;;;;7.65;4.10;;;;;;;17.68;81.37;101540.75;5078840;28;20449;-50
2022/08/21 04:56:37;;;;;;;9.10;4.00;;;;;;;17.67;80.63;101535.53;5096293;28;20043;-53
2022/08/21 04:59:07;;;;;;;8.02;4.30;;;;;;;17.64;79.50;101536.94;5092343;28;20505;-55
2022/08/21 05:01:37;;;;;;;10.70;3.97;;;;;;;17.63;80.21;101535.31;5078849;28;20039;-53
2022/08/21 05:04:07;;;;;;;8.07;4.30;;;;;;;17.63;79.98;101538.09;5096492;28;20502;-54
2022/08/21 05:06:36;;;;;;;8.07;4.30;;;;;;;17.59;79.42;101536.22;5076859;28;20057;-57
2022/08/21 05:09:05;;;;;;;9.00;4.10;;;;;;;17.61;79.88;101545.00;5096334;28;20506;-49
2022/08/21 05:11:34;;;;;;;8.30;4.20;;;;;;;17.57;78.87;101543.97;5078245;28;20048;-50
2022/08/21 05:14:02;;;;;;;7.55;4.05;;;;;;;17.57;80.00;101550.28;5078403;28;20036;-54
2022/08/21 05:16:30;;;;;;;8.95;4.20;;;;;;;17.56;78.73;101547.84;5095043;28;20651;-50
2022/08/21 05:19:05;;;;;;;11.15;4.45;;;;;;;17.60;80.68;101549.69;5096388;28;20044;-55
2022/08/21 05:21:34;;;;;;;8.88;4.05;;;;;;;17.63;79.72;101553.78;5095704;28;20422;-56
2022/08/21 05:24:02;;;;;;;11.05;4.97;;;;;;;17.63;79.08;101551.88;5078539;28;20048;-57
2022/08/21 05:26:30;;;;;;;10.55;4.45;;;;;;;17.62;79.68;101547.44;5077036;28;20048;-55
2022/08/21 05:28:58;;;;;;;9.00;4.50;;;;;;;17.53;79.13;101548.41;5095511;28;20044;-55
2022/08/21 05:31:25;;;;;;;9.57;4.63;;;;;;;17.46;79.38;101554.28;5078159;28;20040;-52
2022/08/21 05:33:53;;;;;;;10.38;4.72;;;;;;;17.49;79.52;101564.75;5078326;28;20517;-45
2022/08/21 05:36:22;;;;;;;10.80;4.85;;;;;;;17.50;79.66;101560.03;5094551;28;20059;-48
2022/08/21 05:38:50;;;;;;;10.38;4.70;;;;;;;17.54;79.25;101558.34;5094677;28;20387;-48
2022/08/21 05:41:18;;;;;;;9.15;4.78;;;;;;;17.56;79.38;101558.88;5077713;28;20048;-48
2022/08/21 05:43:45;;;;;;;9.65;4.70;;;;;;;17.57;78.99;101568.75;5086851;28;20052;-50
2022/08/21 05:46:13;;;;;;;9.98;4.47;;;;;;;17.59;79.33;101564.59;5095356;28;20036;-47
2022/08/21 05:48:41;;;;;;;10.13;4.53;;;;;;;17.61;79.16;101564.31;5093571;28;20036;-51
2022/08/21 05:51:11;;;;;;;10.88;4.53;;;;;;;17.59;78.84;101563.78;5077466;28;20044;-50
2022/08/21 05:53:41;;;;;;;9.50;4.60;;;;;;;17.58;79.18;101578.66;5095696;28;20399;-53
2022/08/21 05:56:10;;;;;;;10.07;5.03;;;;;;;17.58;79.24;101573.13;5077227;28;20536;-47
2022/08/21 05:58:38;;;;;;;8.27;4.40;;;;;;;17.58;79.51;101579.50;5094204;28;20402;-49
2022/08/21 06:01:08;;;;;;;11.45;4.93;;;;;;;17.58;79.39;101575.91;5094375;28;20387;-51
2022/08/21 06:03:39;;;;;;;10.68;4.78;;;;;;;17.60;79.74;101568.16;5077688;28;20093;-49
2022/08/21 06:06:07;;;;;;;9.02;4.35;;;;;;;17.64;79.49;101575.53;5077283;28;20574;-52
2022/08/21 06:08:34;;;;;;;9.60;4.68;;;;;;;17.68;79.61;101568.31;5093000;28;20055;-50
2022/08/21 06:11:04;;;;;;;10.13;4.80;;;;;;;17.72;79.47;101568.53;5094254;28;20047;-51
2022/08/21 06:13:33;;;;;;;9.27;4.30;;;;;;;17.72;79.63;101568.53;5095387;28;20093;-54
2022/08/21 06:16:07;;;;;;;12.88;5.07;;;;;;;17.73;79.67;101570.19;5092939;28;20509;-54
2022/08/21 06:18:35;;;;;;;16.20;4.97;;;;;;;17.76;79.96;101569.59;5094330;28;20114;-52
2022/08/21 06:21:03;;;;;;;11.18;4.80;;;;;;;17.78;79.99;101575.63;5093614;28;20502;-51
2022/08/21 06:23:31;;;;;;;11.85;4.82;;;;;;;17.81;79.91;101572.28;5060082;28;20403;-54
2022/08/21 06:26:01;;;;;;;12.35;4.72;;;;;;;17.86;80.10;101572.22;5076296;28;20452;-52
2022/08/21 06:28:29;;;;;;;13.52;4.63;;;;;;;17.91;79.93;101576.00;5077212;28;20032;-50
2022/08/21 06:30:56;;;;;;;13.45;5.32;;;;;;;17.90;80.14;101571.63;5092861;28;20044;-51
2022/08/21 06:33:24;;;;;;;15.63;4.90;;;;;;;17.91;80.44;101573.25;5075467;28;20040;-54
2022/08/21 06:35:59;;;;;;;10.48;4.47;;;;;;;17.91;80.55;101571.31;5093438;28;20487;-49
2022/08/21 06:38:27;;;;;;;8.23;4.47;;;;;;;17.92;80.50;101566.59;5094329;28;20047;-50
2022/08/21 06:40:55;;;;;;;9.75;4.57;;;;;;;17.92;80.99;101572.13;5093197;28;20066;-48
2022/08/21 06:43:24;;;;;;;9.35;4.60;;;;;;;18.01;80.89;101570.34;5093888;28;20046;-53
2022/08/21 06:46:07;;;;;;;9.98;4.35;;;;;;;18.03;80.84;101568.91;5094093;28;20036;-51
2022/08/21 06:48:35;;;;;;;12.77;4.82;;;;;;;18.00;81.29;101571.47;5094205;28;20051;-52
2022/08/21 06:51:03;;;;;;;8.93;4.05;;;;;;;17.99;81.71;101565.13;5093033;28;20048;-52
2022/08/21 06:53:31;;;;;;;16.45;5.03;;;;;;;17.99;82.07;101570.66;5093847;28;20051;-52
2022/08/21 06:55:58;;;;;;;11.98;4.95;;;;;;;17.93;82.56;101565.50;5094067;28;20040;-53
2022/08/21 06:58:26;;;;;;;14.07;4.15;;;;;;;17.92;82.66;101572.13;5093544;28;20055;-52
2022/08/21 07:00:54;;;;;;;11.13;3.97;;;;;;;17.90;83.29;101568.88;5092757;28;20070;-53
2022/08/21 07:03:30;;;;;;;13.85;4.90;;;;;;;17.86;83.72;101568.63;5091930;28;20043;-52
2022/08/21 07:05:58;;;;;;;13.45;4.40;;;;;;;17.91;83.79;101559.47;5093797;28;20097;-50
2022/08/21 07:08:27;;;;;;;11.23;4.38;;;;;;;17.91;84.14;101564.97;5094160;28;20043;-50
2022/08/21 07:10:57;;;;;;;14.07;4.88;;;;;;;17.91;84.56;101568.56;5093236;28;20047;-52
2022/08/21 07:13:26;;;;;;;12.30;4.43;;;;;;;17.98;84.33;101568.19;5076053;28;20067;-52
2022/08/21 07:15:53;;;;;;;11.30;4.30;;;;;;;17.98;84.54;101571.75;5075221;28;20509;-52
2022/08/21 07:18:21;;;;;;;14.20;4.90;;;;;;;18.02;84.68;101566.47;5094092;28;20043;-49
2022/08/21 07:20:49;;;;;;;12.07;4.32;;;;;;;18.01;85.22;101570.34;5092653;28;20036;-49
2022/08/21 07:23:23;;;;;;;13.85;4.60;;;;;;;18.07;84.87;101569.16;5074880;28;20089;-51
2022/08/21 07:25:51;;;;;;;11.93;4.60;;;;;;;18.10;85.09;101563.84;5075419;28;20040;-51
2022/08/21 07:28:18;;;;;;;12.88;4.03;;;;;;;18.14;85.29;101563.25;5093468;28;20067;-56
2022/08/21 07:30:49;;;;;;;11.20;5.15;;;;;;;18.14;85.96;101564.06;5072762;28;20494;-52
2022/08/21 07:33:17;;;;;;;15.60;4.70;;;;;;;18.14;85.78;101558.56;5085678;28;20036;-56
2022/08/21 07:35:45;;;;;;;15.25;5.35;;;;;;;18.15;86.31;101565.69;5094003;28;20044;-52
2022/08/21 07:38:13;;;;;;;96.38;24.42;;;;;;;18.20;86.16;101562.84;5074788;28;20050;-52
2022/08/21 07:40:40;;;;;;;44.22;11.70;;;;;;;18.30;86.41;101573.72;5094240;28;20085;-54
2022/08/21 07:43:08;;;;;;;29.17;9.02;;;;;;;18.32;86.38;101559.63;5094785;28;20044;-52
2022/08/21 07:45:36;;;;;;;20.73;6.55;;;;;;;18.35;86.50;101555.44;5095400;28;20448;-57
2022/08/21 07:48:04;;;;;;;23.52;6.75;;;;;;;18.40;86.42;101561.69;5075250;28;20044;-56
2022/08/21 07:50:32;;;;;;;23.02;7.03;;;;;;;18.42;86.36;101559.44;5095112;28;20040;-54
2022/08/21 07:53:00;;;;;;;17.48;5.60;;;;;;;18.43;86.93;101565.78;5093371;28;20040;-56
2022/08/21 07:55:28;;;;;;;15.40;4.93;;;;;;;18.43;87.22;101560.28;5091445;28;20040;-57
2022/08/21 07:57:55;;;;;;;14.27;5.00;;;;;;;18.39;87.65;101557.28;5059443;28;20402;-54
2022/08/21 08:00:25;;;;;;;14.57;4.97;;;;;;;18.37;88.09;101561.47;5093077;28;20093;-53
2022/08/21 08:02:53;;;;;;;15.45;5.70;;;;;;;18.37;88.11;101555.94;5093263;28;20093;-52
2022/08/21 08:05:25;;;;;;;11.57;5.20;;;;;;;18.37;88.42;101561.47;5092954;28;20048;-53
2022/08/21 08:07:54;;;;;;;13.73;5.03;;;;;;;18.37;88.63;101551.25;5092832;28;20036;-55
2022/08/21 08:10:22;;;;;;;13.40;4.95;;;;;;;18.40;88.72;101555.34;5093022;28;20036;-56
2022/08/21 08:12:54;;;;;;;16.98;4.55;;;;;;;18.44;88.55;101556.38;5092929;28;20070;-58
2022/08/21 08:15:24;;;;;;;12.85;5.10;;;;;;;18.45;88.73;101561.59;5093224;28;20040;-55
2022/08/21 08:17:52;;;;;;;12.93;4.70;;;;;;;18.47;88.81;101564.03;5058024;28;20040;-57
2022/08/21 08:20:21;;;;;;;16.98;5.30;;;;;;;18.48;88.96;101563.75;5075259;28;20077;-55
2022/08/21 08:22:49;;;;;;;14.35;4.68;;;;;;;18.50;88.95;101567.03;5093022;28;20052;-57
2022/08/21 08:25:18;;;;;;;16.95;4.70;;;;;;;18.53;88.67;101560.06;5075054;28;20388;-57
2022/08/21 08:27:46;;;;;;;16.10;4.50;;;;;;;18.57;88.69;101560.28;5092649;28;20040;-51
2022/08/21 08:30:16;;;;;;;13.13;4.35;;;;;;;18.61;88.76;101562.13;5092496;28;20044;-56
2022/08/21 08:32:44;;;;;;;16.20;4.53;;;;;;;18.63;89.30;101559.06;5092781;28;20118;-56
2022/08/21 08:35:12;;;;;;;16.33;5.25;;;;;;;18.67;89.28;101560.13;5093185;28;20383;-56
2022/08/21 08:37:41;;;;;;;13.65;4.82;;;;;;;18.69;89.13;101552.34;5074444;28;20538;-56
2022/08/21 08:40:30;;;;;;;13.98;4.55;;;;;;;18.72;88.77;101546.22;5093106;28;20040;-55
2022/08/21 08:42:57;;;;;;;16.63;4.85;;;;;;;18.76;88.93;101535.34;5092520;28;20040;-56
2022/08/21 08:45:26;;;;;;;12.00;4.15;;;;;;;18.82;88.65;101548.78;5092756;28;20040;-53
2022/08/21 08:48:03;;;;;;;11.27;4.05;;;;;;;18.87;88.21;101553.41;5092703;28;20040;-56
2022/08/21 08:51:07;;;;;;;12.90;4.40;;;;;;;18.88;87.81;101544.81;5092686;28;20048;-55
2022/08/21 08:53:50;;;;;;;16.15;5.10;;;;;;;18.91;87.74;101538.69;4994390;28;20050;-49
2022/08/21 08:56:23;;;;;;;13.52;4.20;;;;;;;18.95;87.96;101541.63;5067830;28;20048;-51
2022/08/21 08:58:51;;;;;;;11.05;4.00;;;;;;;18.96;87.97;101535.00;5074793;28;20097;-51
2022/08/21 09:01:20;;;;;;;13.70;4.30;;;;;;;19.00;87.56;101527.75;5074624;28;20047;-55
2022/08/21 09:03:49;;;;;;;13.20;4.30;;;;;;;19.02;87.43;101528.22;5074714;28;20097;-55
2022/08/21 09:06:30;;;;;;;13.98;3.88;;;;;;;19.04;86.75;101525.97;5092520;28;20402;-53
2022/08/21 09:09:35;;;;;;;13.77;4.03;;;;;;;19.09;86.12;101525.06;5073902;28;20044;-55
2022/08/21 09:12:09;;;;;;;12.98;4.25;;;;;;;19.13;85.31;101523.31;5082758;28;20051;-54
2022/08/21 09:15:09;;;;;;;13.45;4.30;;;;;;;19.17;84.66;101521.59;5074517;28;20040;-55
2022/08/21 09:17:43;;;;;;;16.35;4.18;;;;;;;19.19;85.01;101516.53;5074713;28;20040;-55
2022/08/21 09:20:23;;;;;;;11.82;4.03;;;;;;;19.22;84.79;101518.72;5091906;28;20525;-53
2022/08/21 09:23:19;;;;;;;13.80;4.10;;;;;;;19.22;83.94;101521.47;5074458;28;20040;-55
2022/08/21 09:26:05;;;;;;;;;;;;;;;19.23;83.88;101525.03;5053150;28;20047;-56
2022/08/21 09:28:36;;;;;;;16.75;4.82;;;;;;;19.26;83.64;101525.22;5096030;28;19920;-52
2022/08/21 09:31:08;;;;;;;12.73;3.60;;;;;;;19.31;81.99;101525.16;5096398;28;20048;-55
2022/08/21 09:33:35;;;;;;;8.15;3.30;;;;;;;19.34;80.81;101524.53;5095517;28;20444;-56
2022/08/21 09:36:04;;;;;;;12.38;3.70;;;;;;;19.38;80.97;101513.66;5077584;28;20060;-54
2022/08/21 09:38:37;;;;;;;10.85;3.75;;;;;;;19.43;81.24;101523.78;5095810;28;20044;-58
2022/08/21 09:41:10;;;;;;;13.88;3.72;;;;;;;19.47;81.26;101522.03;5077651;28;20040;-55
2022/08/21 09:43:38;;;;;;;11.73;4.13;;;;;;;19.50;80.67;101527.72;5077860;28;20102;-56
2022/08/21 09:46:19;;;;;;;9.18;3.15;;;;;;;19.55;79.61;101527.66;5095354;28;20086;-55
2022/08/21 09:48:50;;;;;;;11.02;3.08;;;;;;;19.58;78.26;101524.25;5095754;28;20055;-56
2022/08/21 09:51:24;;;;;;;12.07;3.72;;;;;;;19.63;78.68;101526.09;5077744;28;20044;-52
2022/08/21 09:54:04;;;;;;;12.70;3.17;;;;;;;19.69;78.57;101524.03;5077660;28;20108;-58
2022/08/21 09:59:33;;;;;;;8.85;2.95;;;;;;;19.74;78.84;101521.16;5088740;28;20047;-57
2022/08/21 10:02:24;;;;;;;10.30;3.72;;;;;;;19.75;78.32;101517.25;5095264;28;20440;-56
2022/08/21 10:04:59;;;;;;;10.57;3.50;;;;;;;19.80;76.79;101519.91;5095439;28;20050;-55
2022/08/21 10:07:29;;;;;;;10.45;3.17;;;;;;;19.88;76.69;101515.56;5094987;28;20040;-56
2022/08/21 10:10:13;;;;;;;13.75;3.53;;;;;;;19.92;76.25;101517.38;5095238;28;20036;-55
2022/08/21 10:12:57;;;;;;;9.93;3.22;;;;;;;19.98;75.84;101502.28;5095441;28;20380;-56
2022/08/21 10:15:46;;;;;;;8.77;3.13;;;;;;;20.06;75.18;101514.56;5095233;28;20499;-52
2022/08/21 10:18:20;;;;;;;9.73;3.22;;;;;;;20.15;74.18;101507.09;5077390;28;20051;-50
2022/08/21 10:20:53;;;;;;;12.93;3.58;;;;;;;20.15;74.20;101520.94;5060537;28;20048;-57
2022/08/21 10:23:48;;;;;;;13.50;3.45;;;;;;;20.17;74.01;101518.69;5095130;28;20052;-55
2022/08/21 10:26:43;;;;;;;10.90;3.40;;;;;;;20.16;72.57;101521.78;5094562;28;20416;-51
2022/08/21 10:29:24;;;;;;;7.60;2.92;;;;;;;20.17;71.53;101520.63;5076934;28;20648;-55
2022/08/21 10:32:01;;;;;;;10.70;3.13;;;;;;;20.22;72.09;101515.78;5076877;28;20051;-57
2022/08/21 10:35:02;;;;;;;9.77;2.90;;;;;;;20.30;72.39;101519.75;5060136;28;20040;-54
2022/08/21 10:37:49;;;;;;;10.18;2.83;;;;;;;20.34;71.00;101517.16;5094095;28;20059;-54
2022/08/21 10:40:54;;;;;;;11.13;2.92;;;;;;;20.35;70.88;101505.78;5094718;28;20040;-55
2022/08/21 10:43:28;;;;;;;7.75;2.75;;;;;;;20.32;69.28;101500.84;5081318;28;20040;-53
2022/08/21 10:46:31;;;;;;;6.95;2.50;;;;;;;20.30;68.75;101500.38;5094089;28;20113;-54
2022/08/21 10:49:18;;;;;;;5.55;2.40;;;;;;;20.31;67.98;101498.44;5071353;28;20048;-53
2022/08/21 10:52:10;;;;;;;8.50;3.17;;;;;;;20.34;68.88;101508.84;5076740;28;20432;-53
2022/08/21 10:54:50;;;;;;;11.18;2.90;;;;;;;20.36;68.47;101512.94;5094212;28;20043;-53
2022/08/21 10:57:52;;;;;;;8.77;2.85;;;;;;;20.39;69.51;101512.28;5075921;28;20044;-56
2022/08/21 11:00:22;;;;;;;7.28;2.70;;;;;;;20.47;68.70;101507.13;5045901;28;20048;-53
2022/08/21 11:03:08;;;;;;;10.30;3.13;;;;;;;20.54;68.48;101504.72;5059860;28;20513;-54
2022/08/21 11:05:44;;;;;;;9.02;2.97;;;;;;;20.57;66.40;101502.16;5093717;28;20571;-54
2022/08/21 11:08:38;;;;;;;9.20;2.78;;;;;;;20.55;66.57;101501.66;5093074;28;20380;-53
2022/08/21 11:11:26;;;;;;;7.60;2.78;;;;;;;20.58;66.94;101500.22;5076909;28;20401;-54
2022/08/21 11:14:30;;;;;;;7.80;2.70;;;;;;;20.66;66.90;101501.38;5094081;28;20036;-50
2022/08/21 11:17:10;;;;;;;11.68;2.97;;;;;;;20.73;65.74;101499.75;5042312;28;20071;-54
2022/08/21 11:20:13;;;;;;;10.00;3.00;;;;;;;20.78;65.72;101496.03;5087554;28;20399;-53
2022/08/21 11:22:58;;;;;;;9.38;2.60;;;;;;;20.82;65.95;101499.81;5076089;28;20047;-55
2022/08/21 11:25:34;;;;;;;9.10;2.90;;;;;;;20.83;64.94;101496.72;5079120;28;20046;-55
2022/08/21 11:28:37;;;;;;;12.43;3.60;;;;;;;20.83;65.62;101496.72;5075678;28;20044;-52
2022/08/21 11:31:39;;;;;;;10.52;3.47;;;;;;;20.84;65.68;101492.00;5071944;28;20535;-54
2022/08/21 11:34:07;;;;;;;9.55;3.00;;;;;;;20.83;64.47;101493.97;5088126;28;20040;-54
2022/08/21 11:36:46;;;;;;;8.60;2.80;;;;;;;20.87;63.83;101499.66;5092795;28;20056;-53
2022/08/21 11:39:30;;;;;;;9.98;3.15;;;;;;;20.90;63.21;101493.50;5093433;28;20040;-53
2022/08/21 11:42:17;;;;;;;9.10;2.90;;;;;;;20.92;63.46;101493.16;5075960;28;20510;-53
2022/08/21 11:44:53;;;;;;;10.10;2.88;;;;;;;20.93;63.33;101486.50;5079447;28;20047;-56
2022/08/21 11:47:30;;;;;;;8.10;2.65;;;;;;;20.93;62.28;101489.25;5087523;28;20047;-55
2022/08/21 11:50:09;;;;;;;9.05;2.88;;;;;;;20.94;62.28;101479.81;5093347;28;20081;-53